Aérodrome :
LOGIN :

S'inscrire | Disclaimer

   EN    FR    IT 

 










Légende :    VFR   VFR Marginal   IFR   IFR Intensif   IFR Très Intensif
Visi : 
Plafond : 
>= 8 km
>= 3000ft
5 à 8 km
1000 à 3000 ft
1500m à 5 km
500 à 1000 ft
800 à 1500m
200 à 500 ft
< 800m
< 200 ft
Symboles :   Orages  Brouillard  Fortes neiges  Fortes précipitations  Vent > 20 kt
SIGMETs :   Divers  Orages  Givrage  Turbulence  Onde Orograph.  Cendres Volcan.







- Altitude de l'aérodrome : 896 ft
- Code IATA : INZ


DAUI - in Salah

DERNIER METAR :
  • 211000Z 06018KT 7000 DRSA NSC 19/03 Q1017

METARs EXPIRÉS :
  • 210900Z 07019KT 7000 DRSA NSC 18/02 Q1017
  • 210800Z 06018KT 8000 DRSA NSC 16/01 Q1016

TAF TAF DAUI
Valide du 21 à 06h jusqu'au 22 à 06h UTC


210500Z 2106/2206 03014KT CAVOK
PROB30
TEMPO 2106/2110 05024KT 4000 DRSA
Pas de NOTAMs connus pour ce terrain.



MET'MAP, la Météo Aéronautique d'un coup d'oeil ! - Copyright ORBIFLY Décembre 2007 - Disclaimer

ORBIFLY MET'MAP TEAM :

Programmation & Développement : Alexandra Zaïnal
Conception & Développement : Baudouin d'Aumeries
Co-Programmation & Développement : Marc-Olivier Méhu
Soutien technique & logistique : Manuel Goepfert

Contact : metmap@orbifly.com




SOURCES & CREDITS :

   NOAA